sensor_id;sensor_type;location;lat;lon;timestamp;temperature;humidity
52203;DHT22;38173;52.850;6.970;2022-07-23T00:01:23;13.90;99.90
52203;DHT22;38173;52.850;6.970;2022-07-23T00:03:49;13.90;99.90
52203;DHT22;38173;52.850;6.970;2022-07-23T00:06:15;13.90;99.90
52203;DHT22;38173;52.850;6.970;2022-07-23T00:08:41;13.90;99.90
52203;DHT22;38173;52.850;6.970;2022-07-23T00:11:07;13.90;99.90
52203;DHT22;38173;52.850;6.970;2022-07-23T00:13:33;13.90;99.90
52203;DHT22;38173;52.850;6.970;2022-07-23T00:15:59;13.90;99.90
52203;DHT22;38173;52.850;6.970;2022-07-23T00:18:25;13.90;99.90
52203;DHT22;38173;52.850;6.970;2022-07-23T00:20:50;13.90;99.90
52203;DHT22;38173;52.850;6.970;2022-07-23T00:23:16;13.90;99.90
52203;DHT22;38173;52.850;6.970;2022-07-23T00:25:42;13.90;99.90
52203;DHT22;38173;52.850;6.970;2022-07-23T00:28:08;13.80;99.90
52203;DHT22;38173;52.850;6.970;2022-07-23T00:30:34;13.90;99.90
52203;DHT22;38173;52.850;6.970;2022-07-23T00:33:02;13.80;99.90
52203;DHT22;38173;52.850;6.970;2022-07-23T00:35:30;13.80;99.90
52203;DHT22;38173;52.850;6.970;2022-07-23T00:37:57;13.80;99.90
52203;DHT22;38173;52.850;6.970;2022-07-23T00:40:24;13.80;99.90
52203;DHT22;38173;52.850;6.970;2022-07-23T00:42:50;13.70;99.90
52203;DHT22;38173;52.850;6.970;2022-07-23T00:45:16;13.60;99.90
52203;DHT22;38173;52.850;6.970;2022-07-23T00:47:42;13.60;99.90
52203;DHT22;38173;52.850;6.970;2022-07-23T00:50:09;13.60;99.90
52203;DHT22;38173;52.850;6.970;2022-07-23T00:52:36;13.60;99.90
52203;DHT22;38173;52.850;6.970;2022-07-23T00:55:04;13.50;99.90
52203;DHT22;38173;52.850;6.970;2022-07-23T00:57:30;13.50;99.90
52203;DHT22;38173;52.850;6.970;2022-07-23T00:59:56;13.40;99.90
52203;DHT22;38173;52.850;6.970;2022-07-23T01:02:24;13.30;99.90
52203;DHT22;38173;52.850;6.970;2022-07-23T01:04:50;13.30;99.90
52203;DHT22;38173;52.850;6.970;2022-07-23T01:07:17;13.30;99.90
52203;DHT22;38173;52.850;6.970;2022-07-23T01:09:45;13.20;99.90
52203;DHT22;38173;52.850;6.970;2022-07-23T01:12:11;13.10;99.90
52203;DHT22;38173;52.850;6.970;2022-07-23T01:14:37;13.20;99.90
52203;DHT22;38173;52.850;6.970;2022-07-23T01:17:03;13.10;99.90
52203;DHT22;38173;52.850;6.970;2022-07-23T01:19:29;13.10;99.90
52203;DHT22;38173;52.850;6.970;2022-07-23T01:21:57;13.10;99.90
52203;DHT22;38173;52.850;6.970;2022-07-23T01:24:23;13.10;99.90
52203;DHT22;38173;52.850;6.970;2022-07-23T01:26:49;13.00;99.90
52203;DHT22;38173;52.850;6.970;2022-07-23T01:29:15;13.10;99.90
52203;DHT22;38173;52.850;6.970;2022-07-23T01:31:42;13.00;99.90
52203;DHT22;38173;52.850;6.970;2022-07-23T01:34:08;13.00;99.90
52203;DHT22;38173;52.850;6.970;2022-07-23T01:36:34;13.00;99.90
52203;DHT22;38173;52.850;6.970;2022-07-23T01:39:00;13.10;99.90
52203;DHT22;38173;52.850;6.970;2022-07-23T01:41:26;13.00;99.90
52203;DHT22;38173;52.850;6.970;2022-07-23T01:43:52;13.00;99.90
52203;DHT22;38173;52.850;6.970;2022-07-23T01:46:17;13.00;99.90
52203;DHT22;38173;52.850;6.970;2022-07-23T01:48:43;13.00;99.90
52203;DHT22;38173;52.850;6.970;2022-07-23T01:51:09;13.00;99.90
52203;DHT22;38173;52.850;6.970;2022-07-23T01:53:35;12.90;99.90
52203;DHT22;38173;52.850;6.970;2022-07-23T01:56:00;12.80;99.90
52203;DHT22;38173;52.850;6.970;2022-07-23T01:58:27;12.80;99.90
52203;DHT22;38173;52.850;6.970;2022-07-23T02:00:54;12.80;99.90
52203;DHT22;38173;52.850;6.970;2022-07-23T02:03:19;12.70;99.90
52203;DHT22;38173;52.850;6.970;2022-07-23T02:05:45;12.70;99.90
52203;DHT22;38173;52.850;6.970;2022-07-23T02:08:11;12.60;99.90
52203;DHT22;38173;52.850;6.970;2022-07-23T02:10:37;12.60;99.90
52203;DHT22;38173;52.850;6.970;2022-07-23T02:13:03;12.50;99.90
52203;DHT22;38173;52.850;6.970;2022-07-23T02:15:29;12.50;99.90
52203;DHT22;38173;52.850;6.970;2022-07-23T02:17:55;12.50;99.90
52203;DHT22;38173;52.850;6.970;2022-07-23T02:20:21;12.40;99.90
52203;DHT22;38173;52.850;6.970;2022-07-23T02:22:47;12.40;99.90
52203;DHT22;38173;52.850;6.970;2022-07-23T02:25:13;12.40;99.90
52203;DHT22;38173;52.850;6.970;2022-07-23T02:27:39;12.40;99.90
52203;DHT22;38173;52.850;6.970;2022-07-23T02:30:06;12.30;99.90
52203;DHT22;38173;52.850;6.970;2022-07-23T02:32:32;12.30;99.90
52203;DHT22;38173;52.850;6.970;2022-07-23T02:34:58;12.30;99.90
52203;DHT22;38173;52.850;6.970;2022-07-23T02:37:23;12.30;99.90
52203;DHT22;38173;52.850;6.970;2022-07-23T02:39:49;12.30;99.90
52203;DHT22;38173;52.850;6.970;2022-07-23T02:42:16;12.20;99.90
52203;DHT22;38173;52.850;6.970;2022-07-23T02:44:42;12.20;99.90
52203;DHT22;38173;52.850;6.970;2022-07-23T02:47:07;12.20;99.90
52203;DHT22;38173;52.850;6.970;2022-07-23T02:49:33;12.20;99.90
52203;DHT22;38173;52.850;6.970;2022-07-23T02:51:59;12.10;99.90
52203;DHT22;38173;52.850;6.970;2022-07-23T02:54:25;12.10;99.90
52203;DHT22;38173;52.850;6.970;2022-07-23T02:56:50;12.10;99.90
52203;DHT22;38173;52.850;6.970;2022-07-23T02:59:17;12.10;99.90
52203;DHT22;38173;52.850;6.970;2022-07-23T03:01:43;12.00;99.90
52203;DHT22;38173;52.850;6.970;2022-07-23T03:04:08;12.00;99.90
52203;DHT22;38173;52.850;6.970;2022-07-23T03:06:34;12.00;99.90
52203;DHT22;38173;52.850;6.970;2022-07-23T03:09:02;11.90;99.90
52203;DHT22;38173;52.850;6.970;2022-07-23T03:11:28;11.90;99.90
52203;DHT22;38173;52.850;6.970;2022-07-23T03:13:53;11.80;99.90
52203;DHT22;38173;52.850;6.970;2022-07-23T03:16:19;11.80;99.90
52203;DHT22;38173;52.850;6.970;2022-07-23T03:18:45;11.80;99.90
52203;DHT22;38173;52.850;6.970;2022-07-23T03:21:10;11.80;99.90
52203;DHT22;38173;52.850;6.970;2022-07-23T03:23:36;11.80;99.90
52203;DHT22;38173;52.850;6.970;2022-07-23T03:26:03;11.70;99.90
52203;DHT22;38173;52.850;6.970;2022-07-23T03:28:29;11.70;99.90
52203;DHT22;38173;52.850;6.970;2022-07-23T03:30:56;11.70;99.90
52203;DHT22;38173;52.850;6.970;2022-07-23T03:33:22;11.70;99.90
52203;DHT22;38173;52.850;6.970;2022-07-23T03:35:48;11.70;99.90
52203;DHT22;38173;52.850;6.970;2022-07-23T03:38:14;11.70;99.90
52203;DHT22;38173;52.850;6.970;2022-07-23T03:40:40;11.70;99.90
52203;DHT22;38173;52.850;6.970;2022-07-23T03:43:06;11.70;99.90
52203;DHT22;38173;52.850;6.970;2022-07-23T03:45:32;11.70;99.90
52203;DHT22;38173;52.850;6.970;2022-07-23T03:47:58;11.70;99.90
52203;DHT22;38173;52.850;6.970;2022-07-23T03:50:24;11.70;99.90
52203;DHT22;38173;52.850;6.970;2022-07-23T03:52:49;11.70;99.90
52203;DHT22;38173;52.850;6.970;2022-07-23T03:55:16;11.70;99.90
52203;DHT22;38173;52.850;6.970;2022-07-23T03:57:42;11.70;99.90
52203;DHT22;38173;52.850;6.970;2022-07-23T04:00:09;11.60;99.90
52203;DHT22;38173;52.850;6.970;2022-07-23T04:02:36;11.60;99.90
52203;DHT22;38173;52.850;6.970;2022-07-23T04:05:02;11.60;99.90
52203;DHT22;38173;52.850;6.970;2022-07-23T04:07:28;11.60;99.90
52203;DHT22;38173;52.850;6.970;2022-07-23T04:09:54;11.60;99.90
52203;DHT22;38173;52.850;6.970;2022-07-23T04:12:19;11.50;99.90
52203;DHT22;38173;52.850;6.970;2022-07-23T04:14:45;11.50;99.90
52203;DHT22;38173;52.850;6.970;2022-07-23T04:17:12;11.40;99.90
52203;DHT22;38173;52.850;6.970;2022-07-23T04:19:38;11.40;99.90
52203;DHT22;38173;52.850;6.970;2022-07-23T04:22:10;11.40;99.90
52203;DHT22;38173;52.850;6.970;2022-07-23T04:24:36;11.30;99.90
52203;DHT22;38173;52.850;6.970;2022-07-23T04:27:02;11.30;99.90
52203;DHT22;38173;52.850;6.970;2022-07-23T04:29:29;11.30;99.90
52203;DHT22;38173;52.850;6.970;2022-07-23T04:31:55;11.30;99.90
52203;DHT22;38173;52.850;6.970;2022-07-23T04:34:20;11.30;99.90
52203;DHT22;38173;52.850;6.970;2022-07-23T04:36:47;11.30;99.90
52203;DHT22;38173;52.850;6.970;2022-07-23T04:39:13;11.30;99.90
52203;DHT22;38173;52.850;6.970;2022-07-23T04:41:39;11.30;99.90
52203;DHT22;38173;52.850;6.970;2022-07-23T04:44:04;11.30;99.90
52203;DHT22;38173;52.850;6.970;2022-07-23T04:46:30;11.40;99.90
52203;DHT22;38173;52.850;6.970;2022-07-23T04:48:56;11.40;99.90
52203;DHT22;38173;52.850;6.970;2022-07-23T04:51:22;11.50;99.90
52203;DHT22;38173;52.850;6.970;2022-07-23T04:53:47;11.50;99.90
52203;DHT22;38173;52.850;6.970;2022-07-23T04:56:13;11.50;99.90
52203;DHT22;38173;52.850;6.970;2022-07-23T04:58:39;11.60;99.90
52203;DHT22;38173;52.850;6.970;2022-07-23T05:01:04;11.70;99.90
52203;DHT22;38173;52.850;6.970;2022-07-23T05:03:31;11.70;99.90
52203;DHT22;38173;52.850;6.970;2022-07-23T05:05:57;11.80;99.90
52203;DHT22;38173;52.850;6.970;2022-07-23T05:08:23;11.90;99.90
52203;DHT22;38173;52.850;6.970;2022-07-23T05:10:49;12.00;99.90
52203;DHT22;38173;52.850;6.970;2022-07-23T05:13:16;12.10;99.90
52203;DHT22;38173;52.850;6.970;2022-07-23T05:15:42;12.10;99.90
52203;DHT22;38173;52.850;6.970;2022-07-23T05:18:08;12.20;99.90
52203;DHT22;38173;52.850;6.970;2022-07-23T05:20:34;12.30;99.90
52203;DHT22;38173;52.850;6.970;2022-07-23T05:23:00;12.40;99.90
52203;DHT22;38173;52.850;6.970;2022-07-23T05:25:26;12.50;99.90
52203;DHT22;38173;52.850;6.970;2022-07-23T05:27:52;12.50;99.90
52203;DHT22;38173;52.850;6.970;2022-07-23T05:30:17;12.60;99.90
52203;DHT22;38173;52.850;6.970;2022-07-23T05:32:43;12.70;99.90
52203;DHT22;38173;52.850;6.970;2022-07-23T05:35:09;12.80;99.90
52203;DHT22;38173;52.850;6.970;2022-07-23T05:37:35;12.80;99.90
52203;DHT22;38173;52.850;6.970;2022-07-23T05:40:05;12.90;99.90
52203;DHT22;38173;52.850;6.970;2022-07-23T05:42:34;13.10;99.90
52203;DHT22;38173;52.850;6.970;2022-07-23T05:45:00;13.20;99.90
52203;DHT22;38173;52.850;6.970;2022-07-23T05:47:25;13.30;99.90
52203;DHT22;38173;52.850;6.970;2022-07-23T05:49:51;13.50;99.90
52203;DHT22;38173;52.850;6.970;2022-07-23T05:52:17;13.60;99.90
52203;DHT22;38173;52.850;6.970;2022-07-23T05:54:43;13.70;99.90
52203;DHT22;38173;52.850;6.970;2022-07-23T05:57:08;13.90;99.90
52203;DHT22;38173;52.850;6.970;2022-07-23T05:59:34;13.90;99.90
52203;DHT22;38173;52.850;6.970;2022-07-23T06:02:00;14.10;99.90
52203;DHT22;38173;52.850;6.970;2022-07-23T06:04:26;14.20;99.90
52203;DHT22;38173;52.850;6.970;2022-07-23T06:06:52;14.30;99.90
52203;DHT22;38173;52.850;6.970;2022-07-23T06:09:17;14.40;99.90
52203;DHT22;38173;52.850;6.970;2022-07-23T06:11:43;14.50;99.90
52203;DHT22;38173;52.850;6.970;2022-07-23T06:14:09;14.60;99.90
52203;DHT22;38173;52.850;6.970;2022-07-23T06:16:35;14.70;99.90
52203;DHT22;38173;52.850;6.970;2022-07-23T06:19:00;14.80;99.90
52203;DHT22;38173;52.850;6.970;2022-07-23T06:21:26;14.80;99.90
52203;DHT22;38173;52.850;6.970;2022-07-23T06:23:52;14.90;99.90
52203;DHT22;38173;52.850;6.970;2022-07-23T06:26:18;15.00;99.90
52203;DHT22;38173;52.850;6.970;2022-07-23T06:28:43;15.10;99.90
52203;DHT22;38173;52.850;6.970;2022-07-23T06:31:09;15.20;99.90
52203;DHT22;38173;52.850;6.970;2022-07-23T06:33:35;15.30;99.90
52203;DHT22;38173;52.850;6.970;2022-07-23T06:36:00;15.40;99.90
52203;DHT22;38173;52.850;6.970;2022-07-23T06:38:26;15.50;99.90
52203;DHT22;38173;52.850;6.970;2022-07-23T06:40:52;15.50;99.90
52203;DHT22;38173;52.850;6.970;2022-07-23T06:43:18;15.70;99.90
52203;DHT22;38173;52.850;6.970;2022-07-23T06:45:44;15.70;99.90
52203;DHT22;38173;52.850;6.970;2022-07-23T06:48:09;15.80;99.90
52203;DHT22;38173;52.850;6.970;2022-07-23T06:50:35;15.90;99.90
52203;DHT22;38173;52.850;6.970;2022-07-23T06:53:01;16.00;99.90
52203;DHT22;38173;52.850;6.970;2022-07-23T06:55:27;16.00;99.90
52203;DHT22;38173;52.850;6.970;2022-07-23T06:57:52;16.10;99.90
52203;DHT22;38173;52.850;6.970;2022-07-23T07:00:18;16.20;99.90
52203;DHT22;38173;52.850;6.970;2022-07-23T07:02:44;16.30;99.90
52203;DHT22;38173;52.850;6.970;2022-07-23T07:05:10;16.30;99.90
52203;DHT22;38173;52.850;6.970;2022-07-23T07:07:35;16.30;99.90
52203;DHT22;38173;52.850;6.970;2022-07-23T07:10:04;16.40;99.90
52203;DHT22;38173;52.850;6.970;2022-07-23T07:12:30;16.40;99.90
52203;DHT22;38173;52.850;6.970;2022-07-23T07:14:56;16.50;99.90
52203;DHT22;38173;52.850;6.970;2022-07-23T07:17:23;16.60;99.90
52203;DHT22;38173;52.850;6.970;2022-07-23T07:19:52;16.60;99.90
52203;DHT22;38173;52.850;6.970;2022-07-23T07:22:18;16.60;99.90
52203;DHT22;38173;52.850;6.970;2022-07-23T07:24:43;16.70;99.90
52203;DHT22;38173;52.850;6.970;2022-07-23T07:27:09;16.80;99.90
52203;DHT22;38173;52.850;6.970;2022-07-23T07:29:35;16.80;99.90
52203;DHT22;38173;52.850;6.970;2022-07-23T07:32:00;16.90;99.90
52203;DHT22;38173;52.850;6.970;2022-07-23T07:34:26;17.10;99.90
52203;DHT22;38173;52.850;6.970;2022-07-23T07:36:52;17.10;99.90
52203;DHT22;38173;52.850;6.970;2022-07-23T07:39:17;17.10;99.90
52203;DHT22;38173;52.850;6.970;2022-07-23T07:41:43;17.20;99.90
52203;DHT22;38173;52.850;6.970;2022-07-23T07:44:09;17.30;99.90
52203;DHT22;38173;52.850;6.970;2022-07-23T07:46:35;17.40;99.90
52203;DHT22;38173;52.850;6.970;2022-07-23T07:49:00;17.60;99.90
52203;DHT22;38173;52.850;6.970;2022-07-23T07:51:26;17.70;99.90
52203;DHT22;38173;52.850;6.970;2022-07-23T07:53:56;17.80;99.90
52203;DHT22;38173;52.850;6.970;2022-07-23T07:56:21;17.90;99.90
52203;DHT22;38173;52.850;6.970;2022-07-23T07:58:47;18.10;99.90
52203;DHT22;38173;52.850;6.970;2022-07-23T08:01:13;18.10;99.90
52203;DHT22;38173;52.850;6.970;2022-07-23T08:03:38;18.00;99.90
52203;DHT22;38173;52.850;6.970;2022-07-23T08:06:04;18.00;99.90
52203;DHT22;38173;52.850;6.970;2022-07-23T08:08:30;18.00;99.90
52203;DHT22;38173;52.850;6.970;2022-07-23T08:10:55;18.00;99.90
52203;DHT22;38173;52.850;6.970;2022-07-23T08:13:21;18.10;99.90
52203;DHT22;38173;52.850;6.970;2022-07-23T08:15:47;18.30;99.90
52203;DHT22;38173;52.850;6.970;2022-07-23T08:18:13;18.30;99.90
52203;DHT22;38173;52.850;6.970;2022-07-23T08:20:39;18.20;99.90
52203;DHT22;38173;52.850;6.970;2022-07-23T08:23:06;18.20;99.90
52203;DHT22;38173;52.850;6.970;2022-07-23T08:25:34;18.20;99.90
52203;DHT22;38173;52.850;6.970;2022-07-23T08:28:02;18.20;99.90
52203;DHT22;38173;52.850;6.970;2022-07-23T08:30:29;18.40;99.90
52203;DHT22;38173;52.850;6.970;2022-07-23T08:37:54;18.90;99.90
52203;DHT22;38173;52.850;6.970;2022-07-23T08:40:20;18.90;99.90
52203;DHT22;38173;52.850;6.970;2022-07-23T08:42:49;19.00;99.90
52203;DHT22;38173;52.850;6.970;2022-07-23T08:45:17;19.10;99.90
52203;DHT22;38173;52.850;6.970;2022-07-23T08:47:44;19.10;99.90
52203;DHT22;38173;52.850;6.970;2022-07-23T08:50:11;19.10;99.90
52203;DHT22;38173;52.850;6.970;2022-07-23T08:52:37;19.20;99.90
52203;DHT22;38173;52.850;6.970;2022-07-23T08:55:04;19.30;99.90
52203;DHT22;38173;52.850;6.970;2022-07-23T08:57:30;19.40;99.90
52203;DHT22;38173;52.850;6.970;2022-07-23T08:59:56;19.40;99.90
52203;DHT22;38173;52.850;6.970;2022-07-23T09:02:22;19.40;99.90
52203;DHT22;38173;52.850;6.970;2022-07-23T09:04:48;19.50;99.90
52203;DHT22;38173;52.850;6.970;2022-07-23T09:07:14;19.50;99.90
52203;DHT22;38173;52.850;6.970;2022-07-23T09:09:40;19.40;99.90
52203;DHT22;38173;52.850;6.970;2022-07-23T09:12:07;19.10;99.90
52203;DHT22;38173;52.850;6.970;2022-07-23T09:14:37;18.90;99.90
52203;DHT22;38173;52.850;6.970;2022-07-23T09:17:15;18.70;99.90
52203;DHT22;38173;52.850;6.970;2022-07-23T09:19:42;18.80;99.90
52203;DHT22;38173;52.850;6.970;2022-07-23T09:27:46;19.10;99.90
52203;DHT22;38173;52.850;6.970;2022-07-23T09:30:12;19.30;99.90
52203;DHT22;38173;52.850;6.970;2022-07-23T09:32:41;19.40;99.90
52203;DHT22;38173;52.850;6.970;2022-07-23T09:35:08;19.50;99.90
52203;DHT22;38173;52.850;6.970;2022-07-23T09:37:34;19.50;99.90
52203;DHT22;38173;52.850;6.970;2022-07-23T09:40:08;19.60;99.90
52203;DHT22;38173;52.850;6.970;2022-07-23T09:42:35;19.50;99.90
52203;DHT22;38173;52.850;6.970;2022-07-23T09:45:01;19.50;99.90
52203;DHT22;38173;52.850;6.970;2022-07-23T09:47:31;19.40;99.90
52203;DHT22;38173;52.850;6.970;2022-07-23T09:52:34;19.20;99.90
52203;DHT22;38173;52.850;6.970;2022-07-23T09:55:04;19.20;99.90
52203;DHT22;38173;52.850;6.970;2022-07-23T09:57:32;19.30;99.90
52203;DHT22;38173;52.850;6.970;2022-07-23T10:00:00;19.40;99.90
52203;DHT22;38173;52.850;6.970;2022-07-23T10:02:28;19.40;99.90
52203;DHT22;38173;52.850;6.970;2022-07-23T10:04:54;19.40;99.90
52203;DHT22;38173;52.850;6.970;2022-07-23T10:07:22;19.30;99.90
52203;DHT22;38173;52.850;6.970;2022-07-23T10:09:50;19.30;99.90
52203;DHT22;38173;52.850;6.970;2022-07-23T10:12:19;19.20;99.90
52203;DHT22;38173;52.850;6.970;2022-07-23T10:15:06;19.20;99.90
52203;DHT22;38173;52.850;6.970;2022-07-23T10:17:34;19.40;99.90
52203;DHT22;38173;52.850;6.970;2022-07-23T10:20:00;19.60;99.90
52203;DHT22;38173;52.850;6.970;2022-07-23T10:22:50;19.90;99.90
52203;DHT22;38173;52.850;6.970;2022-07-23T10:25:36;20.00;99.90
52203;DHT22;38173;52.850;6.970;2022-07-23T10:28:42;20.10;99.90
52203;DHT22;38173;52.850;6.970;2022-07-23T10:31:38;20.10;99.90
52203;DHT22;38173;52.850;6.970;2022-07-23T10:39:20;20.30;99.90
52203;DHT22;38173;52.850;6.970;2022-07-23T10:41:47;20.30;99.90
52203;DHT22;38173;52.850;6.970;2022-07-23T10:44:21;20.40;99.90
52203;DHT22;38173;52.850;6.970;2022-07-23T10:46:59;20.60;99.90
52203;DHT22;38173;52.850;6.970;2022-07-23T10:49:40;20.60;99.90
52203;DHT22;38173;52.850;6.970;2022-07-23T10:54:43;20.50;99.90
52203;DHT22;38173;52.850;6.970;2022-07-23T10:57:11;20.40;99.90
52203;DHT22;38173;52.850;6.970;2022-07-23T11:02:28;20.70;99.90
52203;DHT22;38173;52.850;6.970;2022-07-23T11:04:59;20.90;99.90
52203;DHT22;38173;52.850;6.970;2022-07-23T11:07:25;21.00;99.90
52203;DHT22;38173;52.850;6.970;2022-07-23T11:09:52;20.90;99.90
52203;DHT22;38173;52.850;6.970;2022-07-23T11:25:04;21.70;99.90
52203;DHT22;38173;52.850;6.970;2022-07-23T11:27:40;21.70;99.90
52203;DHT22;38173;52.850;6.970;2022-07-23T11:33:16;22.00;99.90
52203;DHT22;38173;52.850;6.970;2022-07-23T11:35:45;22.10;99.90
52203;DHT22;38173;52.850;6.970;2022-07-23T11:38:20;22.10;99.90
52203;DHT22;38173;52.850;6.970;2022-07-23T11:40:48;22.10;99.90
52203;DHT22;38173;52.850;6.970;2022-07-23T11:43:14;22.10;99.90
52203;DHT22;38173;52.850;6.970;2022-07-23T11:45:42;22.30;99.90
52203;DHT22;38173;52.850;6.970;2022-07-23T11:50:45;22.20;99.90
52203;DHT22;38173;52.850;6.970;2022-07-23T11:53:11;22.30;99.90
52203;DHT22;38173;52.850;6.970;2022-07-23T11:55:37;22.40;99.90
52203;DHT22;38173;52.850;6.970;2022-07-23T11:58:03;22.40;99.90
52203;DHT22;38173;52.850;6.970;2022-07-23T12:00:30;22.40;99.90
52203;DHT22;38173;52.850;6.970;2022-07-23T12:02:59;22.50;99.90
52203;DHT22;38173;52.850;6.970;2022-07-23T12:05:32;22.50;99.90
52203;DHT22;38173;52.850;6.970;2022-07-23T12:07:59;22.60;99.90
52203;DHT22;38173;52.850;6.970;2022-07-23T12:10:29;22.40;99.90
52203;DHT22;38173;52.850;6.970;2022-07-23T12:12:57;22.30;99.90
52203;DHT22;38173;52.850;6.970;2022-07-23T12:15:29;22.30;99.90
52203;DHT22;38173;52.850;6.970;2022-07-23T12:17:58;22.40;99.90
52203;DHT22;38173;52.850;6.970;2022-07-23T12:20:33;22.30;99.90
52203;DHT22;38173;52.850;6.970;2022-07-23T12:23:01;22.30;99.90
52203;DHT22;38173;52.850;6.970;2022-07-23T12:25:36;22.30;99.90
52203;DHT22;38173;52.850;6.970;2022-07-23T12:28:22;22.20;99.90
52203;DHT22;38173;52.850;6.970;2022-07-23T12:30:53;22.20;99.90
52203;DHT22;38173;52.850;6.970;2022-07-23T12:33:25;22.50;99.90
52203;DHT22;38173;52.850;6.970;2022-07-23T12:35:54;22.60;99.90
52203;DHT22;38173;52.850;6.970;2022-07-23T12:38:22;22.80;99.90
52203;DHT22;38173;52.850;6.970;2022-07-23T12:45:56;23.10;99.90
52203;DHT22;38173;52.850;6.970;2022-07-23T12:48:30;23.40;99.90
52203;DHT22;38173;52.850;6.970;2022-07-23T12:50:58;23.40;99.90
52203;DHT22;38173;52.850;6.970;2022-07-23T12:56:06;23.70;99.90
52203;DHT22;38173;52.850;6.970;2022-07-23T12:59:10;23.70;99.30
52203;DHT22;38173;52.850;6.970;2022-07-23T13:01:37;23.60;99.90
52203;DHT22;38173;52.850;6.970;2022-07-23T13:04:09;23.50;99.60
52203;DHT22;38173;52.850;6.970;2022-07-23T13:06:52;23.70;99.30
52203;DHT22;38173;52.850;6.970;2022-07-23T13:09:24;23.80;95.30
52203;DHT22;38173;52.850;6.970;2022-07-23T13:11:51;23.70;95.70
52203;DHT22;38173;52.850;6.970;2022-07-23T13:14:18;23.80;99.00
52203;DHT22;38173;52.850;6.970;2022-07-23T13:16:45;24.00;98.10
52203;DHT22;38173;52.850;6.970;2022-07-23T13:19:11;24.60;97.00
52203;DHT22;38173;52.850;6.970;2022-07-23T13:21:38;25.50;95.30
52203;DHT22;38173;52.850;6.970;2022-07-23T13:24:04;26.00;86.60
52203;DHT22;38173;52.850;6.970;2022-07-23T13:26:30;26.40;83.60
52203;DHT22;38173;52.850;6.970;2022-07-23T13:28:56;26.70;89.20
52203;DHT22;38173;52.850;6.970;2022-07-23T13:31:21;27.00;90.60
52203;DHT22;38173;52.850;6.970;2022-07-23T13:33:47;27.00;84.20
52203;DHT22;38173;52.850;6.970;2022-07-23T13:36:13;26.90;83.10
52203;DHT22;38173;52.850;6.970;2022-07-23T13:38:39;26.80;79.00
52203;DHT22;38173;52.850;6.970;2022-07-23T13:41:05;26.60;78.10
52203;DHT22;38173;52.850;6.970;2022-07-23T13:43:31;26.50;83.80
52203;DHT22;38173;52.850;6.970;2022-07-23T13:45:57;26.10;80.10
52203;DHT22;38173;52.850;6.970;2022-07-23T13:48:24;25.90;82.10
52203;DHT22;38173;52.850;6.970;2022-07-23T13:50:50;25.80;88.00
52203;DHT22;38173;52.850;6.970;2022-07-23T13:53:18;26.00;89.30
52203;DHT22;38173;52.850;6.970;2022-07-23T13:55:46;26.20;82.80
52203;DHT22;38173;52.850;6.970;2022-07-23T13:58:12;26.10;80.00
52203;DHT22;38173;52.850;6.970;2022-07-23T14:00:42;26.10;85.10
52203;DHT22;38173;52.850;6.970;2022-07-23T14:03:08;26.00;80.80
52203;DHT22;38173;52.850;6.970;2022-07-23T14:05:34;26.00;80.90
52203;DHT22;38173;52.850;6.970;2022-07-23T14:08:00;26.40;82.30
52203;DHT22;38173;52.850;6.970;2022-07-23T14:10:26;26.30;82.40
52203;DHT22;38173;52.850;6.970;2022-07-23T14:12:52;26.20;77.10
52203;DHT22;38173;52.850;6.970;2022-07-23T14:15:22;26.20;82.00
52203;DHT22;38173;52.850;6.970;2022-07-23T14:17:48;26.40;77.70
52203;DHT22;38173;52.850;6.970;2022-07-23T14:20:15;26.50;76.00
52203;DHT22;38173;52.850;6.970;2022-07-23T14:22:41;26.80;86.20
52203;DHT22;38173;52.850;6.970;2022-07-23T14:25:08;27.00;78.80
52203;DHT22;38173;52.850;6.970;2022-07-23T14:27:35;26.90;77.10
52203;DHT22;38173;52.850;6.970;2022-07-23T14:30:07;27.00;82.40
52203;DHT22;38173;52.850;6.970;2022-07-23T14:32:33;26.70;76.70
52203;DHT22;38173;52.850;6.970;2022-07-23T14:34:59;26.60;81.10
52203;DHT22;38173;52.850;6.970;2022-07-23T14:37:26;26.30;81.10
52203;DHT22;38173;52.850;6.970;2022-07-23T14:39:52;26.00;82.00
52203;DHT22;38173;52.850;6.970;2022-07-23T14:42:18;26.00;85.60
52203;DHT22;38173;52.850;6.970;2022-07-23T14:44:44;25.90;85.00
52203;DHT22;38173;52.850;6.970;2022-07-23T14:47:10;25.70;82.40
52203;DHT22;38173;52.850;6.970;2022-07-23T14:49:37;25.50;87.20
52203;DHT22;38173;52.850;6.970;2022-07-23T14:52:04;26.10;87.10
52203;DHT22;38173;52.850;6.970;2022-07-23T14:54:30;26.70;86.10
52203;DHT22;38173;52.850;6.970;2022-07-23T14:56:57;27.10;83.20
52203;DHT22;38173;52.850;6.970;2022-07-23T14:59:25;27.30;81.00
52203;DHT22;38173;52.850;6.970;2022-07-23T15:01:54;27.80;81.30
52203;DHT22;38173;52.850;6.970;2022-07-23T15:04:28;28.50;72.70
52203;DHT22;38173;52.850;6.970;2022-07-23T15:06:54;28.30;72.10
52203;DHT22;38173;52.850;6.970;2022-07-23T15:09:20;27.80;70.70
52203;DHT22;38173;52.850;6.970;2022-07-23T15:11:46;27.60;71.70
52203;DHT22;38173;52.850;6.970;2022-07-23T15:14:12;27.10;71.00
52203;DHT22;38173;52.850;6.970;2022-07-23T15:16:38;26.40;74.00
52203;DHT22;38173;52.850;6.970;2022-07-23T15:19:04;26.10;73.90
52203;DHT22;38173;52.850;6.970;2022-07-23T15:21:30;25.90;77.60
52203;DHT22;38173;52.850;6.970;2022-07-23T15:23:57;26.30;82.30
52203;DHT22;38173;52.850;6.970;2022-07-23T15:26:29;27.40;79.70
52203;DHT22;38173;52.850;6.970;2022-07-23T15:28:56;27.50;71.50
52203;DHT22;38173;52.850;6.970;2022-07-23T15:31:22;27.10;75.90
52203;DHT22;38173;52.850;6.970;2022-07-23T15:33:48;26.60;75.60
52203;DHT22;38173;52.850;6.970;2022-07-23T15:36:14;26.20;77.70
52203;DHT22;38173;52.850;6.970;2022-07-23T15:38:42;26.20;81.00
52203;DHT22;38173;52.850;6.970;2022-07-23T15:41:07;26.30;80.30
52203;DHT22;38173;52.850;6.970;2022-07-23T15:43:33;26.70;80.20
52203;DHT22;38173;52.850;6.970;2022-07-23T15:45:59;26.90;75.40
52203;DHT22;38173;52.850;6.970;2022-07-23T15:48:31;26.50;73.80
52203;DHT22;38173;52.850;6.970;2022-07-23T15:50:58;26.00;78.30
52203;DHT22;38173;52.850;6.970;2022-07-23T15:53:23;26.20;81.10
52203;DHT22;38173;52.850;6.970;2022-07-23T15:55:49;26.60;75.50
52203;DHT22;38173;52.850;6.970;2022-07-23T15:58:15;26.40;77.50
52203;DHT22;38173;52.850;6.970;2022-07-23T16:00:41;25.90;77.00
52203;DHT22;38173;52.850;6.970;2022-07-23T16:03:07;25.90;81.40
52203;DHT22;38173;52.850;6.970;2022-07-23T16:05:32;26.90;81.80
52203;DHT22;38173;52.850;6.970;2022-07-23T16:08:02;28.10;71.70
52203;DHT22;38173;52.850;6.970;2022-07-23T16:10:29;28.40;67.30
52203;DHT22;38173;52.850;6.970;2022-07-23T16:12:55;28.00;71.90
52203;DHT22;38173;52.850;6.970;2022-07-23T16:15:22;27.50;72.00
52203;DHT22;38173;52.850;6.970;2022-07-23T16:17:48;27.10;74.50
52203;DHT22;38173;52.850;6.970;2022-07-23T16:20:15;26.80;74.90